Terminal Aerodrome Forecast
Issued by NWS Jackson, KY

Home | Current Version | Previous Version | Text Only | Print | Product List | Glossary On
Versions: 1 2 3 4 5 6 7 8 9 10 11 12 13
000
FTUS43 KJKL 260914 AAC
TAFJKL
TAF AMD
KJKL 260914Z 2609/2706 VRB03KT P6SM FEW040
      TEMPO 2609/2612 5SM BR SCT002=

USA.gov is the U.S. government's official web portal to all federal, state and local government web resources and services.